Time;durP1;ratioP1;P1;durP2;ratioP2;P2;SDS_P1;SDS_P2;PMS_P1;PMS_P2;Temp;Humidity;BMP_temperature;BMP_pressure;BME280_temperature;BME280_humidity;BME280_pressure;Samples;Min_cycle;Max_cycle;Signal;HPM_P1;HPM_P2
2021/05/02 00:00:42;;;;;;;21.63;11.18;;;;;;;9.41;49.17;100135.94;4984403;28;20529;-64
2021/05/02 00:03:08;;;;;;;26.65;12.48;;;;;;;9.32;48.59;100117.50;4986790;28;20102;-68
2021/05/02 00:05:36;;;;;;;26.10;12.55;;;;;;;9.54;48.69;100148.19;4985158;28;20050;-67
2021/05/02 00:08:03;;;;;;;25.50;11.75;;;;;;;9.57;48.77;100151.66;4984011;28;20490;-63
2021/05/02 00:10:31;;;;;;;29.17;12.90;;;;;;;9.49;49.17;100126.16;4985300;28;20057;-65
2021/05/02 00:12:58;;;;;;;22.10;10.63;;;;;;;9.47;48.62;100112.06;4986704;28;20077;-64
2021/05/02 00:15:25;;;;;;;29.35;10.73;;;;;;;9.72;47.51;100140.03;4967182;28;20104;-70
2021/05/02 00:17:58;;;;;;;17.02;9.05;;;;;;;9.63;46.93;100145.44;4969455;28;20050;-64
2021/05/02 00:20:27;;;;;;;19.65;9.32;;;;;;;9.03;47.33;100114.25;4985442;28;20454;-60
2021/05/02 00:23:01;;;;;;;20.10;9.18;;;;;;;9.41;47.15;100126.25;4983105;28;20042;-68
2021/05/02 00:25:30;;;;;;;20.23;9.35;;;;;;;9.60;47.42;100134.88;4986186;28;20050;-63
2021/05/02 00:27:58;;;;;;;32.08;12.98;;;;;;;9.46;48.62;100121.78;4988703;28;20042;-60
2021/05/02 00:30:25;;;;;;;27.52;11.93;;;;;;;9.64;47.73;100141.88;5003481;28;20176;-65
2021/05/02 00:32:54;;;;;;;47.15;17.75;;;;;;;9.58;49.23;100141.97;5004498;28;20057;-63
2021/05/02 00:35:23;;;;;;;31.70;16.05;;;;;;;9.57;49.09;100138.44;5004906;28;20056;-63
2021/05/02 00:37:50;;;;;;;37.38;16.45;;;;;;;9.61;49.55;100141.06;5003828;28;20049;-64
2021/05/02 00:40:25;;;;;;;36.30;16.15;;;;;;;9.23;49.40;100104.38;4972182;28;20046;-64
2021/05/02 00:42:52;;;;;;;44.30;15.65;;;;;;;9.52;48.76;100127.03;4971906;28;20038;-61
2021/05/02 00:45:46;;;;;;;38.47;15.43;;;;;;;9.52;49.28;100129.66;4987057;28;20046;-69
2021/05/02 00:48:50;;;;;;;34.58;15.13;;;;;;;9.55;49.27;100142.00;4988545;28;20053;-65
2021/05/02 00:51:17;;;;;;;43.03;16.50;;;;;;;9.49;49.71;100134.09;5005628;28;20160;-65
2021/05/02 00:54:05;;;;;;;40.53;16.27;;;;;;;9.25;50.39;100100.81;5002604;28;20456;-69
2021/05/02 00:56:35;;;;;;;31.50;15.55;;;;;;;9.45;49.87;100142.97;4972242;28;20096;-66
2021/05/02 00:59:18;;;;;;;43.72;16.80;;;;;;;9.48;49.99;100149.13;4988070;28;20045;-64
2021/05/02 01:01:48;;;;;;;39.05;15.93;;;;;;;9.40;50.19;100129.78;4988523;28;20050;-63
2021/05/02 01:04:34;;;;;;;38.72;16.45;;;;;;;9.42;50.44;100137.72;4989839;28;20042;-67
2021/05/02 01:07:03;;;;;;;41.00;17.30;;;;;;;9.45;50.70;100135.00;5005321;28;20127;-69
2021/05/02 01:09:31;;;;;;;35.95;17.60;;;;;;;9.24;49.82;100109.66;4971147;28;20046;-63
2021/05/02 01:11:59;;;;;;;36.35;17.77;;;;;;;9.41;50.37;100131.53;5006719;28;20046;-64
2021/05/02 01:14:28;;;;;;;42.95;17.67;;;;;;;9.34;50.08;100126.31;4990327;28;20469;-64
2021/05/02 01:16:56;;;;;;;38.47;17.33;;;;;;;9.33;50.31;100145.72;5009771;28;20045;-63
2021/05/02 01:19:24;;;;;;;47.38;17.42;;;;;;;9.24;50.43;100136.13;5009149;28;20064;-65
2021/05/02 01:21:50;;;;;;;38.17;16.60;;;;;;;9.25;50.30;100143.16;4989746;28;20073;-66
2021/05/02 01:24:16;;;;;;;37.90;15.73;;;;;;;9.21;50.17;100140.53;5007656;28;20046;-63
2021/05/02 01:26:44;;;;;;;41.55;14.98;;;;;;;9.29;50.16;100144.00;4975197;28;20053;-64
2021/05/02 01:29:11;;;;;;;39.38;15.82;;;;;;;9.34;49.88;100158.09;5007000;28;20540;-69
2021/05/02 01:31:38;;;;;;;31.45;14.63;;;;;;;9.31;49.79;100142.22;5024528;28;20050;-69
2021/05/02 01:34:04;;;;;;;41.55;14.75;;;;;;;9.30;49.67;100129.91;4991814;28;20124;-64
2021/05/02 01:36:29;;;;;;;36.08;15.07;;;;;;;9.47;49.38;100149.13;4991396;28;20187;-65
2021/05/02 01:38:57;;;;;;;30.20;14.43;;;;;;;9.40;49.32;100152.72;4988181;28;20497;-63
2021/05/02 01:41:25;;;;;;;28.17;12.38;;;;;;;8.97;49.19;100151.31;5008766;28;20041;-64
2021/05/02 01:43:52;;;;;;;32.22;12.98;;;;;;;9.06;49.43;100153.91;5008527;28;20054;-64
2021/05/02 01:46:27;;;;;;;26.92;12.35;;;;;;;9.11;49.00;100145.03;5006447;28;20553;-68
2021/05/02 01:48:53;;;;;;;27.33;12.80;;;;;;;9.13;49.68;100145.00;5007219;28;20041;-64
2021/05/02 01:51:21;;;;;;;31.23;11.75;;;;;;;9.34;48.33;100155.44;5008047;28;20037;-64
2021/05/02 01:53:47;;;;;;;36.28;14.13;;;;;;;9.27;49.99;100154.59;5006280;28;20057;-70
2021/05/02 01:56:16;;;;;;;45.08;13.65;;;;;;;9.29;50.11;100152.81;4990731;28;20120;-64
2021/05/02 01:58:43;;;;;;;35.33;13.00;;;;;;;9.20;50.09;100155.56;5008225;28;20045;-64
2021/05/02 02:01:19;;;;;;;27.25;12.20;;;;;;;9.30;49.28;100159.00;4974246;28;20045;-70
2021/05/02 02:03:46;;;;;;;26.15;12.00;;;;;;;9.33;49.34;100170.41;4974237;28;20050;-64
2021/05/02 02:06:15;;;;;;;34.25;13.38;;;;;;;9.39;49.86;100178.28;4990383;28;20072;-64
2021/05/02 02:08:42;;;;;;;35.85;15.73;;;;;;;9.32;49.19;100176.63;5006172;28;20073;-70
2021/05/02 02:11:10;;;;;;;35.90;12.48;;;;;;;9.40;49.22;100174.78;4990155;28;20041;-66
2021/05/02 02:13:46;;;;;;;29.80;11.50;;;;;;;9.53;48.90;100173.75;4990592;28;20060;-64
2021/05/02 02:16:13;;;;;;;23.77;10.55;;;;;;;9.47;48.03;100170.31;4987926;28;20569;-70
2021/05/02 02:18:41;;;;;;;19.33;10.93;;;;;;;9.37;47.96;100160.69;4988223;28;20041;-65
2021/05/02 02:21:09;;;;;;;25.08;11.32;;;;;;;9.57;47.69;100178.13;4988601;28;20555;-70
2021/05/02 02:23:39;;;;;;;20.60;10.68;;;;;;;9.43;48.21;100173.88;4987398;28;20116;-65
2021/05/02 02:26:19;;;;;;;23.65;10.95;;;;;;;9.39;47.75;100170.34;4985609;28;20050;-64
2021/05/02 02:28:47;;;;;;;23.30;11.15;;;;;;;9.28;48.31;100166.06;4985290;28;20524;-70
2021/05/02 02:31:14;;;;;;;20.35;11.00;;;;;;;9.25;47.82;100150.19;4998901;28;20076;-66
2021/05/02 02:33:42;;;;;;;20.00;10.38;;;;;;;9.39;48.03;100173.00;4970269;28;20046;-64
2021/05/02 02:36:11;;;;;;;21.38;11.15;;;;;;;9.33;47.99;100164.25;4986204;28;20048;-65
2021/05/02 02:38:40;;;;;;;21.48;10.55;;;;;;;9.05;48.33;100178.59;4995687;28;20048;-69
2021/05/02 02:41:06;;;;;;;20.23;10.90;;;;;;;9.22;47.88;100163.47;4987591;28;20085;-65
2021/05/02 02:43:33;;;;;;;17.83;9.73;;;;;;;8.99;48.51;100166.28;4987685;28;20127;-63
2021/05/02 02:46:04;;;;;;;19.10;10.32;;;;;;;9.10;48.31;100168.88;5005354;28;20054;-65
2021/05/02 02:48:33;;;;;;;17.83;9.23;;;;;;;9.01;48.03;100153.94;5004118;28;20046;-66
2021/05/02 02:51:01;;;;;;;19.48;9.68;;;;;;;9.16;48.24;100171.44;4972823;28;20179;-63
2021/05/02 02:53:30;;;;;;;22.23;10.05;;;;;;;9.14;48.16;100155.59;5006972;28;20369;-64
2021/05/02 02:56:05;;;;;;;22.52;9.77;;;;;;;9.39;48.25;100178.28;4987541;28;20061;-64
2021/05/02 02:58:54;;;;;;;21.80;10.85;;;;;;;9.46;47.69;100173.84;5006701;28;20497;-64
2021/05/02 03:01:20;;;;;;;20.92;9.73;;;;;;;9.10;48.34;100169.72;5005428;28;20045;-63
2021/05/02 03:03:47;;;;;;;24.33;9.75;;;;;;;9.23;47.61;100141.41;4989834;28;20080;-63
2021/05/02 03:06:13;;;;;;;16.20;8.35;;;;;;;9.45;47.27;100172.97;4989162;28;20129;-64
2021/05/02 03:08:40;;;;;;;21.58;10.15;;;;;;;9.51;47.22;100164.94;4969826;28;20156;-64
2021/05/02 03:11:08;;;;;;;21.88;10.23;;;;;;;9.55;47.53;100169.31;5006722;28;20524;-63
2021/05/02 03:13:35;;;;;;;25.42;10.50;;;;;;;9.58;47.13;100171.09;4989181;28;20046;-64
2021/05/02 03:16:03;;;;;;;22.92;10.50;;;;;;;9.70;47.09;100175.38;4988468;28;20060;-70
2021/05/02 03:18:51;;;;;;;25.45;10.15;;;;;;;9.93;46.79;100168.91;4988148;28;20045;-65
2021/05/02 03:21:22;;;;;;;24.65;9.73;;;;;;;10.03;46.67;100180.31;4995781;28;20037;-65
2021/05/02 03:23:52;;;;;;;19.20;8.77;;;;;;;10.05;46.48;100176.75;4970259;28;20144;-65
2021/05/02 03:26:23;;;;;;;16.98;8.70;;;;;;;9.99;47.00;100176.81;4988886;28;20046;-66
2021/05/02 03:28:59;;;;;;;17.17;7.55;;;;;;;10.10;45.85;100179.38;5006536;28;20072;-66
2021/05/02 03:31:31;;;;;;;15.43;8.00;;;;;;;10.01;46.34;100187.41;4972462;28;20080;-64
2021/05/02 03:34:02;;;;;;;15.88;7.50;;;;;;;10.19;46.56;100163.34;4988505;28;20068;-65
2021/05/02 03:36:34;;;;;;;19.60;7.50;;;;;;;10.13;46.32;100177.56;4986378;28;20054;-63
2021/05/02 03:39:00;;;;;;;15.48;7.68;;;;;;;9.69;47.19;100173.63;4987438;28;20041;-64
2021/05/02 03:41:26;;;;;;;22.05;6.55;;;;;;;10.16;46.23;100181.97;5006336;28;20049;-63
2021/05/02 03:43:52;;;;;;;16.70;6.70;;;;;;;10.16;46.98;100168.72;4970675;28;20053;-72
2021/05/02 03:46:24;;;;;;;15.55;7.10;;;;;;;9.96;46.33;100187.44;5005777;28;20253;-66
2021/05/02 03:48:57;;;;;;;18.95;6.75;;;;;;;10.02;46.78;100178.56;5021367;28;20589;-66
2021/05/02 03:51:24;;;;;;;12.63;6.45;;;;;;;10.17;46.47;100183.72;5004268;28;20394;-73
2021/05/02 03:53:50;;;;;;;13.13;5.93;;;;;;;10.31;45.70;100187.94;5005318;28;20069;-67
2021/05/02 03:56:37;;;;;;;15.73;6.32;;;;;;;10.32;45.72;100170.28;5005823;28;20073;-65
2021/05/02 03:59:12;;;;;;;13.88;6.70;;;;;;;10.53;46.33;100178.84;4971269;28;20057;-65
2021/05/02 04:01:56;;;;;;;14.15;6.55;;;;;;;10.47;46.33;100175.38;4956198;28;20100;-67
2021/05/02 04:04:33;;;;;;;15.00;6.70;;;;;;;10.32;46.87;100184.41;5003852;28;20049;-63
2021/05/02 04:07:07;;;;;;;18.33;7.13;;;;;;;10.61;46.26;100181.38;5005058;28;20041;-63
2021/05/02 04:09:33;;;;;;;13.38;6.45;;;;;;;10.33;46.62;100178.22;4985536;28;20042;-67
2021/05/02 04:11:59;;;;;;;15.73;7.25;;;;;;;10.38;46.90;100178.16;5005980;28;20037;-65
2021/05/02 04:14:25;;;;;;;14.43;6.63;;;;;;;10.63;46.46;100184.88;5004683;28;20049;-67
2021/05/02 04:16:58;;;;;;;14.02;6.15;;;;;;;10.15;47.07;100177.53;4970117;28;20042;-67
2021/05/02 04:19:25;;;;;;;10.23;5.72;;;;;;;10.39;47.26;100183.44;5002650;28;20044;-65
2021/05/02 04:21:52;;;;;;;10.18;6.35;;;;;;;10.25;47.07;100161.53;4992346;28;20528;-65
2021/05/02 04:24:18;;;;;;;13.30;6.55;;;;;;;10.33;47.59;100191.47;4989801;28;20125;-64
2021/05/02 04:26:49;;;;;;;15.32;5.75;;;;;;;10.44;47.10;100188.69;5001505;28;20133;-62
2021/05/02 04:29:15;;;;;;;11.68;6.05;;;;;;;10.66;47.40;100172.47;5003295;28;20560;-65
2021/05/02 04:31:41;;;;;;;11.75;6.25;;;;;;;10.91;46.95;100183.59;5004399;28;20135;-63
2021/05/02 04:34:07;;;;;;;24.10;7.07;;;;;;;11.01;46.68;100186.09;5003672;28;20501;-72
2021/05/02 04:36:34;;;;;;;13.27;6.25;;;;;;;11.04;46.82;100190.47;4986427;28;20049;-66
2021/05/02 04:39:03;;;;;;;15.18;6.28;;;;;;;10.89;47.39;100188.03;5002627;28;20041;-65
2021/05/02 04:41:30;;;;;;;12.02;6.03;;;;;;;10.92;46.79;100185.34;4970806;28;20062;-66
2021/05/02 04:43:56;;;;;;;10.80;6.13;;;;;;;11.16;46.67;100184.97;5017804;28;20144;-65
2021/05/02 04:46:22;;;;;;;8.15;5.35;;;;;;;11.34;46.14;100190.88;5005460;28;20073;-63
2021/05/02 04:48:49;;;;;;;10.88;5.50;;;;;;;11.63;45.78;100187.75;5007769;28;20092;-66
2021/05/02 04:51:15;;;;;;;12.77;5.80;;;;;;;11.73;45.81;100184.03;5007816;28;20041;-65
2021/05/02 04:53:44;;;;;;;9.90;5.82;;;;;;;11.48;46.32;100190.63;5008555;28;20808;-65
2021/05/02 04:56:10;;;;;;;12.93;6.60;;;;;;;11.94;45.60;100184.50;4975835;28;20076;-64
2021/05/02 04:58:36;;;;;;;16.80;7.43;;;;;;;12.15;45.45;100186.75;5024819;28;20139;-64
2021/05/02 05:01:02;;;;;;;16.30;7.30;;;;;;;12.11;44.98;100178.88;4989749;28;20077;-67
2021/05/02 05:03:29;;;;;;;13.63;6.65;;;;;;;12.01;45.32;100172.84;4991768;28;20054;-65
2021/05/02 05:05:55;;;;;;;16.48;7.45;;;;;;;12.16;44.89;100159.28;5008900;28;20073;-65
2021/05/02 05:08:21;;;;;;;12.63;7.32;;;;;;;12.40;44.89;100173.84;4989135;28;20046;-67
2021/05/02 05:10:47;;;;;;;16.92;7.30;;;;;;;12.52;45.09;100179.78;5008617;28;20033;-64
2021/05/02 05:13:13;;;;;;;11.60;6.03;;;;;;;12.53;44.95;100165.56;5024061;28;20042;-64
2021/05/02 05:15:42;;;;;;;10.20;5.28;;;;;;;12.39;45.03;100169.44;5009588;28;20045;-66
2021/05/02 05:18:08;;;;;;;10.38;4.88;;;;;;;12.50;44.79;100165.63;5007472;28;20042;-65
2021/05/02 05:20:34;;;;;;;12.68;4.70;;;;;;;12.28;45.50;100167.00;4991875;28;20080;-66
2021/05/02 05:23:00;;;;;;;24.67;4.70;;;;;;;12.20;45.99;100138.81;4977413;28;20512;-71
2021/05/02 05:25:26;;;;;;;13.15;4.63;;;;;;;12.46;45.65;100147.97;5008787;28;20111;-73
2021/05/02 05:27:52;;;;;;;18.52;4.60;;;;;;;12.73;45.39;100166.00;5026627;28;20044;-66
2021/05/02 05:30:18;;;;;;;12.00;4.25;;;;;;;12.70;45.27;100163.41;5026898;28;20076;-69
2021/05/02 05:32:44;;;;;;;11.70;4.72;;;;;;;12.48;45.77;100172.78;5028191;28;20042;-65
2021/05/02 05:35:10;;;;;;;16.20;4.95;;;;;;;13.06;44.68;100159.06;5026181;28;20485;-65
2021/05/02 05:37:37;;;;;;;16.75;4.72;;;;;;;13.48;44.43;100160.66;5028896;28;20057;-65
2021/05/02 05:40:08;;;;;;;19.10;4.97;;;;;;;13.77;43.42;100164.31;5009607;28;20046;-66
2021/05/02 05:42:34;;;;;;;7.05;3.45;;;;;;;13.64;42.66;100170.91;4993793;28;20148;-65
2021/05/02 05:45:00;;;;;;;12.07;3.05;;;;;;;13.15;43.35;100167.72;5027796;28;20041;-66
2021/05/02 05:47:26;;;;;;;11.18;3.95;;;;;;;13.83;42.93;100173.94;5027761;28;20037;-65
2021/05/02 05:49:53;;;;;;;8.73;2.63;;;;;;;13.85;41.08;100167.66;5010464;28;20041;-65
2021/05/02 05:52:19;;;;;;;5.88;2.90;;;;;;;13.57;41.60;100173.78;5008129;28;20053;-65
2021/05/02 05:54:45;;;;;;;7.25;3.25;;;;;;;13.56;41.45;100177.31;5008805;28;20041;-65
2021/05/02 05:57:11;;;;;;;9.93;2.78;;;;;;;13.55;40.19;100173.81;5027088;28;20042;-66
2021/05/02 05:59:37;;;;;;;7.40;2.50;;;;;;;13.80;40.86;100174.91;5026922;28;20076;-71
2021/05/02 06:02:03;;;;;;;5.10;2.70;;;;;;;14.02;40.26;100179.66;5025600;28;20185;-64
2021/05/02 06:04:29;;;;;;;8.85;3.10;;;;;;;14.30;40.23;100181.56;5042220;28;20072;-67
2021/05/02 06:06:54;;;;;;;6.82;4.15;;;;;;;14.58;39.46;100165.59;5010123;28;20045;-65
2021/05/02 06:09:20;;;;;;;7.47;3.08;;;;;;;14.71;38.99;100175.00;5024802;28;20327;-66
2021/05/02 06:11:47;;;;;;;4.65;2.42;;;;;;;14.98;38.90;100148.31;4993687;28;20132;-66
2021/05/02 06:14:14;;;;;;;5.93;3.00;;;;;;;15.02;38.62;100157.09;5009852;28;20053;-65
2021/05/02 06:16:39;;;;;;;20.38;4.47;;;;;;;14.60;38.72;100179.78;5009876;28;20463;-67
2021/05/02 06:19:06;;;;;;;6.47;3.60;;;;;;;14.00;39.35;100166.34;5025155;28;20076;-65
2021/05/02 06:21:32;;;;;;;6.07;2.80;;;;;;;13.67;38.32;100162.81;5010164;28;20385;-66
2021/05/02 06:23:58;;;;;;;6.88;2.58;;;;;;;13.52;37.55;100165.00;5008797;28;20099;-64
2021/05/02 06:26:24;;;;;;;9.45;2.10;;;;;;;13.60;37.56;100192.31;4991328;28;20408;-73
2021/05/02 06:28:51;;;;;;;4.50;2.45;;;;;;;13.53;38.05;100185.41;5025522;28;20922;-69
2021/05/02 06:31:18;;;;;;;3.40;1.73;;;;;;;13.34;38.20;100190.31;4992944;28;20049;-63
2021/05/02 06:33:45;;;;;;;7.07;2.63;;;;;;;13.82;38.05;100193.53;5009703;28;20052;-64
2021/05/02 06:36:11;;;;;;;9.27;2.45;;;;;;;13.73;39.10;100185.78;5025711;28;20459;-64
2021/05/02 06:38:37;;;;;;;8.27;2.75;;;;;;;14.18;39.32;100181.88;4992468;28;20470;-65
2021/05/02 06:41:03;;;;;;;6.82;3.08;;;;;;;14.97;37.85;100167.06;5026916;28;20041;-66
2021/05/02 06:43:30;;;;;;;5.15;2.70;;;;;;;14.55;37.28;100133.69;5025856;28;20085;-72
2021/05/02 06:45:56;;;;;;;5.45;2.38;;;;;;;15.17;37.44;100177.97;5009271;28;20103;-65
2021/05/02 06:48:23;;;;;;;7.95;3.00;;;;;;;15.73;36.46;100169.00;5009418;28;20037;-64
2021/05/02 06:50:49;;;;;;;8.75;3.05;;;;;;;15.06;36.67;100174.78;5026703;28;20175;-64
2021/05/02 06:53:15;;;;;;;7.40;2.63;;;;;;;14.66;37.00;100176.91;5023929;28;20042;-64
2021/05/02 06:55:41;;;;;;;9.02;2.63;;;;;;;15.01;36.44;100176.72;5025236;28;20061;-63
2021/05/02 06:58:08;;;;;;;14.63;2.58;;;;;;;15.45;36.23;100174.41;5026987;28;20404;-66
2021/05/02 07:00:36;;;;;;;8.27;2.97;;;;;;;15.36;35.67;100174.72;5007954;28;20049;-75
2021/05/02 07:03:02;;;;;;;6.97;2.33;;;;;;;15.28;35.38;100179.41;5008229;28;20461;-64
2021/05/02 07:05:27;;;;;;;8.23;2.50;;;;;;;15.44;35.59;100174.44;5008785;28;20148;-69
2021/05/02 07:07:54;;;;;;;12.63;2.20;;;;;;;16.18;34.34;100162.88;5008503;28;20051;-64
2021/05/02 07:10:20;;;;;;;6.85;2.30;;;;;;;16.30;33.48;100162.44;5004429;28;20057;-64
2021/05/02 07:12:46;;;;;;;9.18;2.40;;;;;;;15.42;34.28;100171.84;5008240;28;20136;-64
2021/05/02 07:15:12;;;;;;;6.63;1.98;;;;;;;14.87;35.45;100173.63;5008234;28;20132;-65
2021/05/02 07:17:38;;;;;;;10.00;2.40;;;;;;;15.18;35.01;100171.72;5008244;28;20048;-69
2021/05/02 07:20:07;;;;;;;7.50;1.92;;;;;;;15.71;34.45;100165.50;5005764;28;20105;-65
2021/05/02 07:22:34;;;;;;;4.78;1.88;;;;;;;15.14;34.83;100121.97;5008532;28;20041;-65
2021/05/02 07:25:00;;;;;;;7.90;2.13;;;;;;;15.60;34.00;100156.97;5026379;28;20049;-65
2021/05/02 07:27:26;;;;;;;4.05;2.15;;;;;;;15.34;34.63;100093.69;5006225;28;20489;-64
2021/05/02 07:29:52;;;;;;;7.55;2.30;;;;;;;15.96;33.74;100151.22;5025724;28;20057;-64
2021/05/02 07:32:18;;;;;;;5.10;2.42;;;;;;;15.81;33.65;100161.56;5025939;28;20056;-64
2021/05/02 07:34:44;;;;;;;4.07;2.35;;;;;;;15.58;34.00;100167.72;5005930;28;20132;-69
2021/05/02 07:37:11;;;;;;;3.40;2.13;;;;;;;15.36;34.43;100153.34;5004377;28;20037;-67
2021/05/02 07:39:38;;;;;;;6.88;2.13;;;;;;;15.17;33.96;100143.25;5005422;28;20049;-63
2021/05/02 07:42:04;;;;;;;5.63;2.08;;;;;;;15.27;34.00;100150.06;5004882;28;20053;-62
2021/05/02 07:44:30;;;;;;;6.00;2.15;;;;;;;15.56;33.82;100150.88;4970042;28;20049;-64
2021/05/02 07:46:56;;;;;;;6.65;2.40;;;;;;;15.93;33.40;100129.94;5005380;28;20405;-63
2021/05/02 07:49:22;;;;;;;4.35;2.50;;;;;;;16.34;33.16;100145.34;5006547;28;20412;-63
2021/05/02 07:51:48;;;;;;;8.00;2.50;;;;;;;16.56;32.25;100132.94;4988174;28;20037;-65
2021/05/02 07:54:14;;;;;;;5.57;2.00;;;;;;;16.55;32.66;100139.22;5003136;28;20128;-66
2021/05/02 07:56:39;;;;;;;3.97;2.05;;;;;;;16.18;32.86;100119.22;5023369;28;20396;-70
2021/05/02 07:59:05;;;;;;;6.28;2.28;;;;;;;16.56;32.79;100126.69;4991709;28;20038;-64
2021/05/02 08:01:31;;;;;;;6.88;2.50;;;;;;;17.34;31.31;100139.59;5007051;28;20489;-69
2021/05/02 08:03:57;;;;;;;5.93;2.47;;;;;;;17.54;30.99;100140.56;5025024;28;20045;-66
2021/05/02 08:06:23;;;;;;;4.53;2.17;;;;;;;17.35;31.26;100127.94;5008353;28;20057;-64
2021/05/02 08:08:49;;;;;;;4.93;2.20;;;;;;;17.31;31.59;100120.94;5007414;28;20057;-64
2021/05/02 08:11:15;;;;;;;12.32;2.72;;;;;;;17.52;31.18;100130.81;5023774;28;20033;-65
2021/05/02 08:13:41;;;;;;;4.53;2.05;;;;;;;17.96;30.62;100130.63;5007728;28;20440;-63
2021/05/02 08:16:07;;;;;;;7.72;2.00;;;;;;;18.50;28.94;100121.94;4991742;28;20041;-63
2021/05/02 08:18:33;;;;;;;4.70;2.13;;;;;;;19.31;28.92;100112.63;5025351;28;20087;-63
2021/05/02 08:21:02;;;;;;;5.82;2.20;;;;;;;20.30;27.52;100125.38;4990562;28;20049;-63
2021/05/02 08:23:28;;;;;;;7.88;2.45;;;;;;;19.68;28.04;100125.06;4995515;28;20049;-65
2021/05/02 08:25:54;;;;;;;3.83;2.35;;;;;;;19.01;28.79;100111.41;5029927;28;20033;-63
2021/05/02 08:28:20;;;;;;;4.35;2.20;;;;;;;18.54;29.54;100128.03;5002868;28;20041;-63
2021/05/02 08:30:46;;;;;;;4.55;2.50;;;;;;;18.69;29.22;100105.81;4992984;28;20049;-66
2021/05/02 08:33:12;;;;;;;6.20;2.30;;;;;;;17.94;30.39;100112.88;5008459;28;20050;-64
2021/05/02 08:35:38;;;;;;;4.85;1.98;;;;;;;18.48;30.00;100109.53;4975610;28;20050;-65
2021/05/02 08:38:05;;;;;;;9.13;2.45;;;;;;;18.86;29.68;100120.19;4991192;28;20138;-64
2021/05/02 08:40:31;;;;;;;10.73;6.72;;;;;;;18.86;29.50;100097.84;5007586;28;20068;-65
2021/05/02 08:43:04;;;;;;;12.43;2.42;;;;;;;19.11;28.80;100109.97;4998157;28;20037;-64
2021/05/02 08:45:30;;;;;;;6.13;2.05;;;;;;;18.65;29.07;100099.72;5005289;28;20040;-67
2021/05/02 08:47:56;;;;;;;2.22;1.95;;;;;;;18.66;29.45;100100.63;5004835;28;20037;-63
2021/05/02 08:50:23;;;;;;;4.10;2.03;;;;;;;17.97;29.02;100102.00;4998718;28;20045;-65
2021/05/02 08:52:52;;;;;;;3.35;1.65;;;;;;;18.93;29.01;100093.88;5006257;28;20541;-69
2021/05/02 08:55:19;;;;;;;5.88;2.22;;;;;;;19.90;27.12;100070.03;4988965;28;20034;-69
2021/05/02 08:57:46;;;;;;;9.50;1.92;;;;;;;20.58;27.22;100085.19;4999011;28;20046;-64
2021/05/02 09:00:19;;;;;;;6.85;1.85;;;;;;;20.18;27.16;100091.88;4982709;28;20517;-65
2021/05/02 09:02:55;;;;;;;9.93;2.42;;;;;;;20.15;27.10;100062.44;5017622;28;20034;-63
2021/05/02 09:05:22;;;;;;;4.13;1.77;;;;;;;19.23;27.64;100070.88;4995735;28;20042;-64
2021/05/02 09:07:48;;;;;;;7.15;1.98;;;;;;;18.81;28.88;100086.44;5007027;28;20045;-65
2021/05/02 09:10:17;;;;;;;4.72;2.08;;;;;;;19.24;28.49;100086.09;4996707;28;20426;-66
2021/05/02 09:13:00;;;;;;;6.57;1.98;;;;;;;18.48;28.42;100047.75;4982880;28;20057;-63
2021/05/02 09:15:31;;;;;;;4.60;2.08;;;;;;;17.82;29.94;100079.41;5005379;28;20041;-65
2021/05/02 09:18:09;;;;;;;4.13;2.47;;;;;;;18.04;29.77;100087.38;5008286;28;20112;-65
2021/05/02 09:20:54;;;;;;;10.55;2.67;;;;;;;17.54;30.62;100081.56;4998341;28;20057;-69
2021/05/02 09:23:35;;;;;;;6.70;1.90;;;;;;;17.18;30.72;100077.69;4972987;28;20037;-66
2021/05/02 09:26:06;;;;;;;8.43;2.35;;;;;;;17.47;30.78;100088.13;4978156;28;20136;-68
2021/05/02 09:28:50;;;;;;;3.03;2.45;;;;;;;17.41;30.44;100064.22;4993419;28;20065;-65
2021/05/02 09:31:23;;;;;;;4.53;2.20;;;;;;;17.23;30.77;100081.09;4990525;28;20513;-67
2021/05/02 09:33:50;;;;;;;3.53;1.80;;;;;;;17.72;30.22;100066.44;5022479;28;20392;-63
2021/05/02 09:36:19;;;;;;;4.45;2.53;;;;;;;17.61;30.77;100064.25;5008082;28;20176;-65
2021/05/02 09:38:46;;;;;;;5.68;2.17;;;;;;;17.51;30.92;100065.59;5004977;28;20052;-69
2021/05/02 09:41:16;;;;;;;8.27;3.80;;;;;;;17.44;31.10;100060.53;4988319;28;20057;-65
2021/05/02 09:43:49;;;;;;;6.25;3.28;;;;;;;16.50;32.47;100060.88;5021759;28;20604;-66
2021/05/02 09:46:33;;;;;;;11.32;3.85;;;;;;;16.31;32.70;100083.03;5007183;28;20493;-70
2021/05/02 09:49:08;;;;;;;7.00;2.80;;;;;;;16.69;32.22;100071.75;4980919;28;20048;-65
2021/05/02 09:51:35;;;;;;;5.53;2.63;;;;;;;16.70;31.86;100071.66;5005108;28;20052;-63
2021/05/02 09:54:07;;;;;;;3.80;2.47;;;;;;;16.46;32.59;100069.09;4987252;28;20072;-65
2021/05/02 09:56:40;;;;;;;6.82;2.83;;;;;;;15.93;33.05;100067.53;5022437;28;20084;-66
2021/05/02 09:59:38;;;;;;;10.43;2.95;;;;;;;16.10;33.07;100076.69;4989722;28;20049;-70
2021/05/02 10:02:10;;;;;;;4.78;2.28;;;;;;;16.47;32.87;100079.75;4988286;28;20058;-65
2021/05/02 10:04:43;;;;;;;5.15;2.22;;;;;;;16.09;33.03;100058.91;5019861;28;20060;-65
2021/05/02 10:07:10;;;;;;;3.30;2.15;;;;;;;16.26;32.68;100061.78;5007301;28;20065;-66
2021/05/02 10:09:37;;;;;;;9.10;2.72;;;;;;;16.35;32.59;100036.50;4974397;28;20045;-68
2021/05/02 10:12:05;;;;;;;6.15;2.10;;;;;;;16.44;32.60;100053.09;4971482;28;20083;-65
2021/05/02 10:14:35;;;;;;;11.75;2.70;;;;;;;17.04;32.12;100053.31;4989908;28;20068;-64
2021/05/02 10:17:02;;;;;;;10.70;2.85;;;;;;;17.47;31.92;100055.94;4958178;28;20049;-66
2021/05/02 10:19:28;;;;;;;10.10;2.63;;;;;;;17.50;31.82;100053.13;4973419;28;20422;-67
2021/05/02 10:21:55;;;;;;;6.70;2.72;;;;;;;17.88;31.91;100059.47;5002166;28;20041;-65
2021/05/02 10:24:22;;;;;;;4.22;2.28;;;;;;;17.90;31.47;100049.53;5018246;28;20140;-65
2021/05/02 10:26:51;;;;;;;10.55;3.05;;;;;;;17.97;31.18;100057.22;4992928;28;20049;-63
2021/05/02 10:29:31;;;;;;;6.57;3.42;;;;;;;17.82;30.94;100051.69;5023352;28;20068;-66
2021/05/02 10:32:00;;;;;;;6.05;2.50;;;;;;;18.19;31.35;100064.34;5026633;28;20038;-64
2021/05/02 10:34:48;;;;;;;7.65;2.90;;;;;;;18.03;30.54;100065.03;4991555;28;20045;-68
2021/05/02 10:37:23;;;;;;;7.43;2.15;;;;;;;17.68;31.30;100060.34;5008006;28;20042;-65
2021/05/02 10:40:09;;;;;;;8.43;2.75;;;;;;;17.20;32.29;100056.19;4986208;28;20499;-71
2021/05/02 10:42:35;;;;;;;3.95;2.60;;;;;;;17.49;32.73;100051.38;4957332;28;20115;-65
2021/05/02 10:45:27;;;;;;;9.63;2.90;;;;;;;17.19;32.46;100063.38;5021247;28;20127;-64
2021/05/02 10:48:05;;;;;;;5.93;2.70;;;;;;;16.04;34.16;100054.63;5007147;28;20056;-64
2021/05/02 10:50:48;;;;;;;7.95;2.83;;;;;;;15.61;35.09;100038.41;5003199;28;20057;-68
2021/05/02 10:53:17;;;;;;;9.00;3.13;;;;;;;16.12;34.66;100048.09;5006551;28;20057;-65
2021/05/02 10:56:39;;;;;;;9.43;3.00;;;;;;;16.01;34.27;100044.94;5004354;28;20053;-64
2021/05/02 10:59:05;;;;;;;10.65;3.38;;;;;;;16.07;34.66;100039.38;4908736;29;20095;-65
2021/05/02 11:01:31;;;;;;;9.75;2.95;;;;;;;16.66;33.68;100051.28;4894905;29;20056;-65
2021/05/02 11:03:57;;;;;;;6.60;3.10;;;;;;;16.92;33.70;100043.09;4924852;29;20436;-64
2021/05/02 11:06:38;;;;;;;8.20;3.35;;;;;;;17.10;33.83;100053.03;4908595;29;20055;-63
2021/05/02 11:09:16;;;;;;;13.73;3.10;;;;;;;17.14;33.44;100035.88;4910238;29;20067;-65
2021/05/02 11:11:50;;;;;;;17.15;3.30;;;;;;;17.29;33.34;100027.19;4910492;29;20047;-62
2021/05/02 11:14:21;;;;;;;24.83;3.45;;;;;;;17.11;33.28;100038.72;4909562;29;20083;-69
2021/05/02 11:17:10;;;;;;;12.57;3.22;;;;;;;16.69;33.40;100043.16;4926430;29;20414;-64
2021/05/02 11:19:35;;;;;;;7.55;3.40;;;;;;;16.17;34.90;100035.41;4909101;29;20178;-65
2021/05/02 11:22:08;;;;;;;11.82;3.30;;;;;;;15.97;35.23;100040.63;4926272;29;20130;-65
2021/05/02 11:24:42;;;;;;;12.23;3.28;;;;;;;15.87;35.97;100035.69;4925145;29;20055;-65
2021/05/02 11:27:25;;;;;;;5.55;2.65;;;;;;;14.71;38.63;100025.53;4878968;29;20118;-64
2021/05/02 11:32:26;;;;;;;8.98;2.78;;;;;;;14.57;39.35;100041.97;4938414;28;20056;-65
2021/05/02 11:34:53;;;;;;;7.40;2.97;;;;;;;14.89;39.02;100030.25;5026995;28;20045;-62